sensor_id;sensor_type;location;lat;lon;timestamp;pressure;altitude;pressure_sealevel;temperature;humidity
64753;BME280;61095;52.454;16.948;2023-05-20T06:00:26;101646.47;;;13.96;63.80
64753;BME280;61095;52.454;16.948;2023-05-20T06:05:27;101650.16;;;13.89;63.74
64753;BME280;61095;52.454;16.948;2023-05-20T06:10:27;101654.03;;;13.76;64.78
64753;BME280;61095;52.454;16.948;2023-05-20T06:15:29;101650.25;;;13.84;64.75
64753;BME280;61095;52.454;16.948;2023-05-20T06:20:29;101649.72;;;14.07;63.43
64753;BME280;61095;52.454;16.948;2023-05-20T06:25:30;101654.59;;;14.22;63.78
64753;BME280;61095;52.454;16.948;2023-05-20T06:30:31;101664.25;;;14.25;63.44
64753;BME280;61095;52.454;16.948;2023-05-20T06:35:32;101662.34;;;14.30;63.27
64753;BME280;61095;52.454;16.948;2023-05-20T06:40:32;101668.41;;;14.35;63.04
64753;BME280;61095;52.454;16.948;2023-05-20T06:45:34;101661.25;;;14.39;63.14
64753;BME280;61095;52.454;16.948;2023-05-20T06:50:34;101661.91;;;14.47;62.88
64753;BME280;61095;52.454;16.948;2023-05-20T06:55:36;101662.13;;;14.38;63.13
64753;BME280;61095;52.454;16.948;2023-05-20T07:00:37;101646.78;;;14.49;63.14
64753;BME280;61095;52.454;16.948;2023-05-20T07:05:38;101646.69;;;14.52;62.86
64753;BME280;61095;52.454;16.948;2023-05-20T07:10:38;101628.16;;;14.80;62.21
64753;BME280;61095;52.454;16.948;2023-05-20T07:15:40;101630.91;;;14.77;62.65
64753;BME280;61095;52.454;16.948;2023-05-20T07:20:40;101620.31;;;14.75;62.56
64753;BME280;61095;52.454;16.948;2023-05-20T07:25:40;101614.44;;;14.95;61.93
64753;BME280;61095;52.454;16.948;2023-05-20T07:30:42;101615.81;;;15.08;61.52
64753;BME280;61095;52.454;16.948;2023-05-20T07:35:43;101608.09;;;15.01;62.36
64753;BME280;61095;52.454;16.948;2023-05-20T07:40:43;101611.66;;;15.00;62.86
64753;BME280;61095;52.454;16.948;2023-05-20T07:45:45;101597.53;;;15.25;61.51
64753;BME280;61095;52.454;16.948;2023-05-20T07:50:45;101590.38;;;15.27;62.04
64753;BME280;61095;52.454;16.948;2023-05-20T07:55:46;101599.19;;;15.56;61.45
64753;BME280;61095;52.454;16.948;2023-05-20T08:00:48;101598.88;;;15.65;61.70
64753;BME280;61095;52.454;16.948;2023-05-20T08:05:48;101596.09;;;15.68;61.47
64753;BME280;61095;52.454;16.948;2023-05-20T08:10:50;101581.31;;;15.86;60.89
64753;BME280;61095;52.454;16.948;2023-05-20T08:15:53;101582.91;;;16.16;60.40
64753;BME280;61095;52.454;16.948;2023-05-20T08:20:53;101578.16;;;16.24;60.22
64753;BME280;61095;52.454;16.948;2023-05-20T08:25:53;101567.00;;;16.38;60.00
64753;BME280;61095;52.454;16.948;2023-05-20T08:30:55;101568.16;;;16.54;59.53
64753;BME280;61095;52.454;16.948;2023-05-20T08:35:55;101569.78;;;16.59;59.44
64753;BME280;61095;52.454;16.948;2023-05-20T08:40:56;101575.72;;;16.65;59.31
64753;BME280;61095;52.454;16.948;2023-05-20T08:45:58;101575.84;;;16.62;58.96
64753;BME280;61095;52.454;16.948;2023-05-20T08:51:02;101573.63;;;16.73;59.51
64753;BME280;61095;52.454;16.948;2023-05-20T08:56:02;101565.13;;;16.87;58.53
64753;BME280;61095;52.454;16.948;2023-05-20T09:01:05;101565.66;;;16.97;58.49
64753;BME280;61095;52.454;16.948;2023-05-20T09:06:06;101555.09;;;16.94;58.89
64753;BME280;61095;52.454;16.948;2023-05-20T09:11:08;101556.41;;;17.05;58.05
64753;BME280;61095;52.454;16.948;2023-05-20T09:16:10;101560.69;;;17.09;57.87
64753;BME280;61095;52.454;16.948;2023-05-20T09:21:10;101561.06;;;17.00;58.23
64753;BME280;61095;52.454;16.948;2023-05-20T09:26:11;101561.41;;;17.13;58.39
64753;BME280;61095;52.454;16.948;2023-05-20T09:31:13;101560.22;;;17.42;58.09
64753;BME280;61095;52.454;16.948;2023-05-20T09:36:14;101557.09;;;17.32;57.66
64753;BME280;61095;52.454;16.948;2023-05-20T09:41:15;101566.63;;;17.38;57.66
64753;BME280;61095;52.454;16.948;2023-05-20T09:46:17;101558.34;;;17.24;58.26
64753;BME280;61095;52.454;16.948;2023-05-20T09:51:18;101562.91;;;17.42;57.68
64753;BME280;61095;52.454;16.948;2023-05-20T09:56:19;101560.22;;;17.42;57.87
64753;BME280;61095;52.454;16.948;2023-05-20T10:01:21;101558.81;;;17.33;58.47
64753;BME280;61095;52.454;16.948;2023-05-20T10:06:39;101565.91;;;17.34;58.36
64753;BME280;61095;52.454;16.948;2023-05-20T10:11:46;101550.09;;;17.30;58.10
64753;BME280;61095;52.454;16.948;2023-05-20T10:16:55;101546.16;;;17.59;57.98
64753;BME280;61095;52.454;16.948;2023-05-20T10:22:02;101544.56;;;17.55;58.00
64753;BME280;61095;52.454;16.948;2023-05-20T10:27:06;101528.88;;;17.47;58.15
64753;BME280;61095;52.454;16.948;2023-05-20T10:32:08;101535.16;;;17.66;57.61
64753;BME280;61095;52.454;16.948;2023-05-20T10:37:08;101532.00;;;17.57;57.49
64753;BME280;61095;52.454;16.948;2023-05-20T10:42:09;101520.69;;;17.72;57.53
64753;BME280;61095;52.454;16.948;2023-05-20T10:47:12;101508.88;;;17.77;57.40
64753;BME280;61095;52.454;16.948;2023-05-20T10:52:12;101518.56;;;17.80;57.53
64753;BME280;61095;52.454;16.948;2023-05-20T10:57:13;101518.81;;;17.94;57.16
64753;BME280;61095;52.454;16.948;2023-05-20T11:02:16;101510.69;;;17.97;56.96
64753;BME280;61095;52.454;16.948;2023-05-20T11:07:24;101514.25;;;18.17;56.80
64753;BME280;61095;52.454;16.948;2023-05-20T11:12:25;101508.13;;;18.33;56.73
64753;BME280;61095;52.454;16.948;2023-05-20T11:17:27;101500.16;;;18.13;57.38
64753;BME280;61095;52.454;16.948;2023-05-20T11:22:28;101500.97;;;18.34;56.70
64753;BME280;61095;52.454;16.948;2023-05-20T11:27:28;101505.59;;;18.49;55.99
64753;BME280;61095;52.454;16.948;2023-05-20T11:32:30;101494.03;;;18.49;55.92
64753;BME280;61095;52.454;16.948;2023-05-20T11:37:30;101476.16;;;18.69;55.47
64753;BME280;61095;52.454;16.948;2023-05-20T11:42:31;101475.97;;;18.54;55.41
64753;BME280;61095;52.454;16.948;2023-05-20T11:47:33;101489.25;;;18.93;54.83
64753;BME280;61095;52.454;16.948;2023-05-20T11:52:33;101483.94;;;18.74;55.10
64753;BME280;61095;52.454;16.948;2023-05-20T11:57:34;101475.22;;;18.88;55.59
64753;BME280;61095;52.454;16.948;2023-05-20T12:02:35;101468.53;;;18.79;56.09
64753;BME280;61095;52.454;16.948;2023-05-20T12:07:36;101473.34;;;18.90;55.57
64753;BME280;61095;52.454;16.948;2023-05-20T12:12:36;101460.50;;;18.79;55.82
64753;BME280;61095;52.454;16.948;2023-05-20T12:17:45;101445.75;;;18.89;55.48
64753;BME280;61095;52.454;16.948;2023-05-20T12:22:47;101456.91;;;18.97;55.38
64753;BME280;61095;52.454;16.948;2023-05-20T12:27:48;101460.78;;;19.09;54.71
64753;BME280;61095;52.454;16.948;2023-05-20T12:32:50;101450.06;;;19.09;55.34
64753;BME280;61095;52.454;16.948;2023-05-20T12:37:53;101444.03;;;19.23;55.23
64753;BME280;61095;52.454;16.948;2023-05-20T12:42:54;101441.63;;;19.51;54.70
64753;BME280;61095;52.454;16.948;2023-05-20T12:47:56;101440.84;;;19.49;54.40
64753;BME280;61095;52.454;16.948;2023-05-20T12:52:57;101414.09;;;19.66;53.97
64753;BME280;61095;52.454;16.948;2023-05-20T12:57:58;101420.31;;;19.67;54.30
64753;BME280;61095;52.454;16.948;2023-05-20T13:03:00;101417.47;;;19.70;54.45
64753;BME280;61095;52.454;16.948;2023-05-20T13:08:00;101407.22;;;19.94;54.68
64753;BME280;61095;52.454;16.948;2023-05-20T13:13:01;101412.41;;;19.97;53.54
64753;BME280;61095;52.454;16.948;2023-05-20T13:18:03;101399.63;;;20.02;53.48
64753;BME280;61095;52.454;16.948;2023-05-20T13:23:03;101396.25;;;19.98;53.93
64753;BME280;61095;52.454;16.948;2023-05-20T13:28:04;101393.34;;;20.19;53.70
64753;BME280;61095;52.454;16.948;2023-05-20T13:33:06;101384.41;;;20.03;53.91
64753;BME280;61095;52.454;16.948;2023-05-20T13:38:07;101366.19;;;20.09;54.15
64753;BME280;61095;52.454;16.948;2023-05-20T13:43:07;101371.19;;;20.31;53.79
64753;BME280;61095;52.454;16.948;2023-05-20T13:48:09;101380.88;;;20.49;53.67
64753;BME280;61095;52.454;16.948;2023-05-20T13:53:09;101371.03;;;20.50;53.46
64753;BME280;61095;52.454;16.948;2023-05-20T13:58:09;101378.47;;;20.60;53.57
64753;BME280;61095;52.454;16.948;2023-05-20T14:03:11;101354.34;;;20.29;53.87
64753;BME280;61095;52.454;16.948;2023-05-20T14:08:12;101367.16;;;20.55;53.47
64753;BME280;61095;52.454;16.948;2023-05-20T14:13:12;101366.69;;;20.47;53.83
64753;BME280;61095;52.454;16.948;2023-05-20T14:18:14;101349.25;;;20.40;54.08
64753;BME280;61095;52.454;16.948;2023-05-20T14:23:14;101340.66;;;20.65;53.32
64753;BME280;61095;52.454;16.948;2023-05-20T14:28:15;101338.09;;;20.78;53.10
64753;BME280;61095;52.454;16.948;2023-05-20T14:33:17;101333.03;;;20.87;52.87
64753;BME280;61095;52.454;16.948;2023-05-20T14:38:19;101331.50;;;20.83;52.82
64753;BME280;61095;52.454;16.948;2023-05-20T14:43:19;101329.69;;;20.84;53.06
64753;BME280;61095;52.454;16.948;2023-05-20T14:48:21;101316.44;;;21.11;52.55
64753;BME280;61095;52.454;16.948;2023-05-20T14:53:21;101319.81;;;21.14;52.46
64753;BME280;61095;52.454;16.948;2023-05-20T14:58:22;101316.16;;;21.15;52.46
64753;BME280;61095;52.454;16.948;2023-05-20T15:03:23;101318.47;;;21.21;52.52
64753;BME280;61095;52.454;16.948;2023-05-20T15:08:24;101312.81;;;21.26;52.18
64753;BME280;61095;52.454;16.948;2023-05-20T15:13:24;101310.97;;;21.41;52.27
64753;BME280;61095;52.454;16.948;2023-05-20T15:18:26;101293.44;;;21.35;52.10
64753;BME280;61095;52.454;16.948;2023-05-20T15:23:26;101303.50;;;21.46;52.00
64753;BME280;61095;52.454;16.948;2023-05-20T15:28:27;101274.34;;;21.40;52.19
64753;BME280;61095;52.454;16.948;2023-05-20T15:33:28;101266.16;;;21.70;52.09
64753;BME280;61095;52.454;16.948;2023-05-20T15:38:29;101262.66;;;21.55;52.19
64753;BME280;61095;52.454;16.948;2023-05-20T15:43:29;101269.72;;;21.70;51.80
64753;BME280;61095;52.454;16.948;2023-05-20T15:48:31;101268.44;;;21.76;52.02
64753;BME280;61095;52.454;16.948;2023-05-20T15:53:31;101263.28;;;21.73;52.52
64753;BME280;61095;52.454;16.948;2023-05-20T15:58:32;101261.59;;;21.84;52.30
64753;BME280;61095;52.454;16.948;2023-05-20T16:03:33;101257.03;;;21.87;52.28
64753;BME280;61095;52.454;16.948;2023-05-20T16:08:34;101248.56;;;21.78;52.62
64753;BME280;61095;52.454;16.948;2023-05-20T16:13:34;101240.41;;;21.80;52.28
64753;BME280;61095;52.454;16.948;2023-05-20T16:18:36;101239.47;;;21.95;52.24
64753;BME280;61095;52.454;16.948;2023-05-20T16:23:36;101242.38;;;22.05;52.03
64753;BME280;61095;52.454;16.948;2023-05-20T16:28:36;101235.94;;;22.07;51.57
64753;BME280;61095;52.454;16.948;2023-05-20T16:33:38;101223.50;;;21.92;52.12
64753;BME280;61095;52.454;16.948;2023-05-20T16:38:39;101227.91;;;21.93;51.64
64753;BME280;61095;52.454;16.948;2023-05-20T16:43:39;101232.25;;;21.81;52.75
64753;BME280;61095;52.454;16.948;2023-05-20T16:48:41;101242.22;;;21.79;52.57
64753;BME280;61095;52.454;16.948;2023-05-20T16:53:41;101230.16;;;21.72;52.74
64753;BME280;61095;52.454;16.948;2023-05-20T16:58:42;101229.88;;;21.77;52.60
64753;BME280;61095;52.454;16.948;2023-05-20T17:03:43;101230.31;;;21.98;51.96
64753;BME280;61095;52.454;16.948;2023-05-20T17:08:44;101235.91;;;21.80;52.18
64753;BME280;61095;52.454;16.948;2023-05-20T17:13:44;101229.75;;;21.78;52.69
64753;BME280;61095;52.454;16.948;2023-05-20T17:18:46;101224.25;;;21.94;52.57
64753;BME280;61095;52.454;16.948;2023-05-20T17:23:46;101229.56;;;21.96;52.79
64753;BME280;61095;52.454;16.948;2023-05-20T17:28:47;101215.44;;;21.92;52.97
64753;BME280;61095;52.454;16.948;2023-05-20T17:33:48;101217.44;;;22.03;52.59
64753;BME280;61095;52.454;16.948;2023-05-20T17:38:49;101215.66;;;21.89;53.33
64753;BME280;61095;52.454;16.948;2023-05-20T17:43:50;101211.63;;;21.96;53.15
64753;BME280;61095;52.454;16.948;2023-05-20T17:48:51;101213.34;;;21.97;53.42
64753;BME280;61095;52.454;16.948;2023-05-20T17:53:52;101214.34;;;22.09;52.87
64753;BME280;61095;52.454;16.948;2023-05-20T17:58:52;101201.75;;;22.09;53.17
64753;BME280;61095;52.454;16.948;2023-05-20T18:03:54;101201.09;;;22.06;53.37
64753;BME280;61095;52.454;16.948;2023-05-20T18:08:54;101199.81;;;21.99;53.65
64753;BME280;61095;52.454;16.948;2023-05-20T18:13:55;101195.50;;;21.96;53.75
64753;BME280;61095;52.454;16.948;2023-05-20T18:18:56;101187.81;;;21.90;54.09
64753;BME280;61095;52.454;16.948;2023-05-20T18:23:57;101177.28;;;21.87;53.89
64753;BME280;61095;52.454;16.948;2023-05-20T18:28:57;101180.66;;;21.76;54.40
64753;BME280;61095;52.454;16.948;2023-05-20T18:33:59;101183.19;;;21.65;54.53
64753;BME280;61095;52.454;16.948;2023-05-20T18:38:59;101188.97;;;21.45;54.93
64753;BME280;61095;52.454;16.948;2023-05-20T18:44:00;101175.31;;;21.35;55.28
64753;BME280;61095;52.454;16.948;2023-05-20T18:49:02;101177.47;;;21.16;56.18
64753;BME280;61095;52.454;16.948;2023-05-20T18:54:02;101183.88;;;21.13;55.92
64753;BME280;61095;52.454;16.948;2023-05-20T18:59:02;101187.63;;;21.11;56.10
64753;BME280;61095;52.454;16.948;2023-05-20T19:04:04;101184.84;;;21.12;55.93
64753;BME280;61095;52.454;16.948;2023-05-20T19:09:05;101176.19;;;20.93;56.54
64753;BME280;61095;52.454;16.948;2023-05-20T19:14:06;101192.00;;;20.83;56.91
64753;BME280;61095;52.454;16.948;2023-05-20T19:19:07;101190.84;;;20.73;57.02
64753;BME280;61095;52.454;16.948;2023-05-20T19:24:08;101195.03;;;20.49;57.73
64753;BME280;61095;52.454;16.948;2023-05-20T19:29:08;101193.06;;;20.67;57.52
64753;BME280;61095;52.454;16.948;2023-05-20T19:34:10;101192.28;;;20.65;57.67
64753;BME280;61095;52.454;16.948;2023-05-20T19:39:10;101191.38;;;20.50;57.73
64753;BME280;61095;52.454;16.948;2023-05-20T19:44:11;101191.38;;;20.50;57.66
64753;BME280;61095;52.454;16.948;2023-05-20T19:49:12;101191.63;;;20.31;58.48
64753;BME280;61095;52.454;16.948;2023-05-20T19:54:13;101193.53;;;20.29;58.59
64753;BME280;61095;52.454;16.948;2023-05-20T19:59:17;101202.50;;;20.28;58.89
64753;BME280;61095;52.454;16.948;2023-05-20T20:04:19;101185.09;;;20.21;58.91
64753;BME280;61095;52.454;16.948;2023-05-20T20:09:19;101194.06;;;20.20;58.91
64753;BME280;61095;52.454;16.948;2023-05-20T20:14:20;101193.03;;;20.22;58.48
64753;BME280;61095;52.454;16.948;2023-05-20T20:19:22;101182.97;;;20.26;58.71
64753;BME280;61095;52.454;16.948;2023-05-20T20:24:22;101190.91;;;20.13;58.76
64753;BME280;61095;52.454;16.948;2023-05-20T20:29:23;101185.09;;;20.21;58.55
64753;BME280;61095;52.454;16.948;2023-05-20T20:34:25;101188.13;;;20.15;58.64
64753;BME280;61095;52.454;16.948;2023-05-20T20:39:25;101189.94;;;20.14;58.92
64753;BME280;61095;52.454;16.948;2023-05-20T20:44:25;101195.81;;;20.21;58.63
64753;BME280;61095;52.454;16.948;2023-05-20T20:49:27;101191.50;;;20.18;58.36
64753;BME280;61095;52.454;16.948;2023-05-20T20:54:28;101188.25;;;19.97;59.39
64753;BME280;61095;52.454;16.948;2023-05-20T20:59:28;101187.78;;;19.75;59.68
64753;BME280;61095;52.454;16.948;2023-05-20T21:04:30;101191.75;;;19.84;59.35
64753;BME280;61095;52.454;16.948;2023-05-20T21:09:30;101193.91;;;19.77;59.73
64753;BME280;61095;52.454;16.948;2023-05-20T21:14:30;101185.09;;;19.75;59.55
64753;BME280;61095;52.454;16.948;2023-05-20T21:19:32;101183.38;;;19.74;59.66
64753;BME280;61095;52.454;16.948;2023-05-20T21:24:32;101186.78;;;19.62;59.90
64753;BME280;61095;52.454;16.948;2023-05-20T21:29:33;101180.88;;;19.71;60.13
64753;BME280;61095;52.454;16.948;2023-05-20T21:34:35;101180.00;;;19.55;60.62
64753;BME280;61095;52.454;16.948;2023-05-20T21:39:35;101184.31;;;19.57;60.44
64753;BME280;61095;52.454;16.948;2023-05-20T21:44:35;101183.34;;;19.43;60.49
64753;BME280;61095;52.454;16.948;2023-05-20T21:49:37;101193.03;;;19.29;61.30
64753;BME280;61095;52.454;16.948;2023-05-20T21:54:38;101187.94;;;19.41;60.89
64753;BME280;61095;52.454;16.948;2023-05-20T21:59:38;101183.28;;;19.44;60.47
